Time;durP1;ratioP1;P1;durP2;ratioP2;P2;SDS_P1;SDS_P2;PMS_P1;PMS_P2;Temp;Humidity;BMP_temperature;BMP_pressure;BME280_temperature;BME280_humidity;BME280_pressure;Samples;Min_cycle;Max_cycle;Signal;HPM_P1;HPM_P2
2021/12/31 00:01:41;;;;;;;7.22;1.67;;;12.00;99.90;;;;;;10466611;28;20045;-79
2021/12/31 00:06:44;;;;;;;3.97;1.70;;;12.00;99.90;;;;;;10450265;28;20040;-79
2021/12/31 00:11:45;;;;;;;7.65;2.00;;;12.00;99.90;;;;;;10483114;28;20049;-79
2021/12/31 00:16:46;;;;;;;5.25;1.70;;;12.00;99.90;;;;;;10449602;28;20048;-79
2021/12/31 00:21:49;;;;;;;8.57;2.90;;;12.00;99.90;;;;;;10446173;28;20056;-80
2021/12/31 00:26:50;;;;;;;4.63;1.90;;;12.00;99.90;;;;;;10395793;28;20044;-80
2021/12/31 00:31:50;;;;;;;6.07;2.10;;;12.00;99.90;;;;;;10411268;28;20148;-80
2021/12/31 00:36:51;;;;;;;6.78;1.77;;;12.10;99.90;;;;;;10445414;28;20559;-80
2021/12/31 00:41:52;;;;;;;10.57;2.22;;;12.00;99.90;;;;;;10427252;28;20055;-80
2021/12/31 00:46:52;;;;;;;4.40;1.48;;;12.20;99.90;;;;;;10444910;28;20040;-80
2021/12/31 00:51:53;;;;;;;5.90;2.03;;;12.00;99.90;;;;;;10444855;28;20135;-80
2021/12/31 00:57:03;;;;;;;4.68;1.70;;;12.00;99.90;;;;;;10427210;28;20026;-80
2021/12/31 01:02:06;;;;;;;4.68;1.70;;;12.10;99.90;;;;;;10427910;28;20598;-80
2021/12/31 01:07:07;;;;;;;3.53;2.00;;;12.10;99.90;;;;;;10426571;28;20033;-79
2021/12/31 01:12:10;;;;;;;7.00;3.70;;;12.10;99.90;;;;;;10444368;28;20111;-80
2021/12/31 01:17:16;;;;;;;7.32;2.90;;;12.10;99.90;;;;;;10448678;28;20554;-80
2021/12/31 01:22:21;;;;;;;6.57;2.40;;;12.10;99.90;;;;;;10439860;28;20444;-79
2021/12/31 01:27:22;;;;;;;6.60;2.78;;;12.10;99.90;;;;;;10452179;28;20025;-80
2021/12/31 01:32:25;;;;;;;3.70;1.73;;;12.10;99.90;;;;;;10417711;28;20095;-80
2021/12/31 01:37:28;;;;;;;3.30;1.90;;;12.10;99.90;;;;;;10433827;28;20040;-80
2021/12/31 01:42:32;;;;;;;8.30;2.05;;;12.10;99.90;;;;;;10451752;28;20045;-80
2021/12/31 01:47:55;;;;;;;4.75;1.73;;;12.10;99.90;;;;;;10451154;28;20483;-79
2021/12/31 01:53:01;;;;;;;4.63;1.90;;;12.20;99.90;;;;;;10419991;28;20048;-79
2021/12/31 01:58:03;;;;;;;5.28;1.50;;;12.20;99.90;;;;;;10450753;28;20669;-80
2021/12/31 02:03:05;;;;;;;2.75;1.65;;;12.30;99.90;;;;;;10412679;28;20487;-80
2021/12/31 02:08:06;;;;;;;4.60;1.73;;;12.20;99.90;;;;;;10450362;28;20021;-79
2021/12/31 02:13:09;;;;;;;5.05;2.08;;;12.30;99.90;;;;;;10441061;28;20040;-79
2021/12/31 02:18:10;;;;;;;3.03;1.80;;;12.30;99.90;;;;;;10449357;28;20087;-80
2021/12/31 02:23:23;;;;;;;7.20;2.30;;;12.20;99.90;;;;;;10430377;28;20135;-79
2021/12/31 02:28:24;;;;;;;2.67;1.85;;;12.20;99.90;;;;;;10429380;28;20033;-80
2021/12/31 02:33:25;;;;;;;3.92;1.92;;;12.20;99.90;;;;;;10431529;28;20143;-79
2021/12/31 02:38:25;;;;;;;5.00;2.25;;;12.20;99.90;;;;;;10431476;28;20120;-80
2021/12/31 02:43:26;;;;;;;4.72;1.95;;;12.20;99.90;;;;;;10449069;28;20102;-80
2021/12/31 02:48:27;;;;;;;4.38;2.22;;;12.20;99.90;;;;;;10448498;28;20402;-79
2021/12/31 02:53:35;;;;;;;4.85;2.88;;;12.20;99.90;;;;;;10431112;28;20503;-80
2021/12/31 02:58:53;;;;;;;4.78;2.53;;;12.20;99.90;;;;;;10448381;28;20507;-79
2021/12/31 03:03:55;;;;;;;5.30;2.70;;;12.20;99.90;;;;;;10428602;28;20123;-79
2021/12/31 03:08:57;;;;;;;3.85;2.95;;;12.20;99.90;;;;;;10414301;28;20112;-79
2021/12/31 03:13:59;;;;;;;4.60;2.70;;;12.20;99.90;;;;;;10448203;28;20041;-80
2021/12/31 03:19:00;;;;;;;5.18;2.60;;;12.20;99.90;;;;;;10446752;28;20140;-79
2021/12/31 03:24:01;;;;;;;5.30;2.92;;;12.20;99.90;;;;;;10424631;28;20041;-79
2021/12/31 03:29:02;;;;;;;7.07;3.20;;;12.20;99.90;;;;;;10429533;28;20040;-79
2021/12/31 03:34:02;;;;;;;4.45;3.00;;;12.30;99.90;;;;;;10447260;28;20044;-78
2021/12/31 03:39:04;;;;;;;4.70;2.83;;;12.20;99.90;;;;;;10428680;28;20025;-79
2021/12/31 03:44:06;;;;;;;4.80;3.10;;;12.20;99.90;;;;;;10447152;28;20411;-79
2021/12/31 03:49:06;;;;;;;6.35;3.15;;;12.20;99.90;;;;;;10446940;28;20119;-80
2021/12/31 03:54:07;;;;;;;4.40;3.08;;;12.20;99.90;;;;;;10436946;28;20045;-80
2021/12/31 03:59:08;;;;;;;5.78;3.15;;;12.20;99.90;;;;;;10428512;28;20073;-80
2021/12/31 04:04:09;;;;;;;5.10;3.28;;;12.20;99.90;;;;;;10411483;28;20049;-80
2021/12/31 04:09:10;;;;;;;5.68;3.30;;;12.20;99.90;;;;;;10428132;28;20098;-80
2021/12/31 04:14:11;;;;;;;5.20;3.08;;;12.30;99.90;;;;;;10436397;28;20061;-80
2021/12/31 04:19:12;;;;;;;5.75;3.10;;;12.40;99.90;;;;;;10426152;28;20037;-79
2021/12/31 04:24:27;;;;;;;5.43;3.05;;;12.20;99.90;;;;;;10445670;28;20048;-79
2021/12/31 04:29:28;;;;;;;5.65;2.85;;;12.20;99.90;;;;;;10442220;28;20041;-80
2021/12/31 04:34:29;;;;;;;5.93;3.00;;;12.20;99.90;;;;;;10410813;28;20048;-79
2021/12/31 04:39:30;;;;;;;4.25;2.67;;;12.20;99.90;;;;;;10445257;28;20036;-80
2021/12/31 04:44:31;;;;;;;5.13;2.45;;;12.30;99.90;;;;;;10444806;28;20044;-79
2021/12/31 04:49:32;;;;;;;4.45;2.47;;;12.30;99.90;;;;;;10426600;28;20029;-79
2021/12/31 04:54:32;;;;;;;2.90;2.33;;;12.30;99.90;;;;;;10444618;28;20105;-79
2021/12/31 04:59:34;;;;;;;4.40;2.10;;;12.30;99.90;;;;;;10423434;28;20410;-80
2021/12/31 05:04:34;;;;;;;3.10;2.28;;;12.30;99.90;;;;;;10441215;28;20099;-80
2021/12/31 05:09:35;;;;;;;3.13;1.75;;;12.30;99.90;;;;;;10444732;28;20120;-80
2021/12/31 05:14:36;;;;;;;4.15;2.20;;;12.30;99.90;;;;;;10444378;28;20060;-79
2021/12/31 05:19:37;;;;;;;4.25;1.92;;;12.30;99.90;;;;;;10426696;28;20099;-79
2021/12/31 05:24:38;;;;;;;5.40;2.13;;;12.30;99.90;;;;;;10444277;28;20045;-80
2021/12/31 05:29:38;;;;;;;3.50;2.17;;;12.30;99.90;;;;;;10434773;28;20025;-80
2021/12/31 05:34:39;;;;;;;3.40;2.05;;;12.30;99.90;;;;;;10393152;28;20507;-79
2021/12/31 05:39:40;;;;;;;3.55;1.63;;;12.30;99.90;;;;;;10426024;28;20128;-80
2021/12/31 05:44:40;;;;;;;6.00;1.70;;;12.30;99.90;;;;;;10443881;28;20060;-79
2021/12/31 05:49:41;;;;;;;3.47;1.60;;;12.30;99.90;;;;;;10443628;28;20041;-80
2021/12/31 05:54:43;;;;;;;4.57;1.98;;;12.30;99.90;;;;;;10443962;28;20041;-80
2021/12/31 05:59:43;;;;;;;2.25;1.70;;;12.30;99.90;;;;;;10423025;28;20265;-79
2021/12/31 06:04:44;;;;;;;2.40;1.80;;;12.30;99.90;;;;;;10450817;28;20059;-79
2021/12/31 06:09:45;;;;;;;3.38;1.92;;;12.20;99.90;;;;;;10450445;28;20048;-79
2021/12/31 06:14:46;;;;;;;2.83;1.60;;;12.20;99.90;;;;;;10441127;28;20458;-79
2021/12/31 06:19:47;;;;;;;1.90;1.52;;;12.20;99.90;;;;;;10414686;28;20033;-79
2021/12/31 06:24:48;;;;;;;5.03;1.67;;;12.30;99.90;;;;;;10449904;28;20052;-79
2021/12/31 06:29:49;;;;;;;2.95;1.63;;;12.20;99.90;;;;;;10432352;28;20078;-79
2021/12/31 06:34:50;;;;;;;3.05;1.52;;;12.20;99.90;;;;;;10415370;28;20041;-79
2021/12/31 06:39:50;;;;;;;3.13;1.50;;;12.30;99.90;;;;;;10431822;28;20064;-80
2021/12/31 06:44:51;;;;;;;3.30;1.52;;;12.20;99.90;;;;;;10431050;28;20515;-79
2021/12/31 06:49:52;;;;;;;2.95;1.60;;;12.20;99.90;;;;;;10449093;28;20033;-79
2021/12/31 06:54:52;;;;;;;3.45;1.50;;;12.20;99.90;;;;;;10449329;28;20499;-79
2021/12/31 06:59:53;;;;;;;4.43;1.52;;;12.20;99.90;;;;;;10448247;28;20499;-79
2021/12/31 07:04:54;;;;;;;2.03;1.67;;;12.20;99.90;;;;;;10414475;28;20051;-79
2021/12/31 07:09:55;;;;;;;3.53;1.40;;;12.10;99.90;;;;;;10430847;28;20048;-78
2021/12/31 07:14:56;;;;;;;1.77;1.42;;;12.10;99.90;;;;;;10430037;28;20160;-78
2021/12/31 07:19:56;;;;;;;1.73;1.20;;;12.10;99.90;;;;;;10446697;28;20036;-78
2021/12/31 07:24:57;;;;;;;2.22;1.58;;;12.10;99.90;;;;;;10447559;28;20174;-80
2021/12/31 07:29:58;;;;;;;3.63;1.40;;;12.10;99.90;;;;;;10447472;28;20095;-80
2021/12/31 07:34:59;;;;;;;2.15;1.38;;;12.10;99.90;;;;;;10447624;28;20072;-80
2021/12/31 07:40:03;;;;;;;2.20;1.20;;;12.10;99.90;;;;;;10446773;28;20680;-78
2021/12/31 07:45:05;;;;;;;3.15;1.40;;;12.20;99.90;;;;;;10446631;28;20419;-78
2021/12/31 07:50:06;;;;;;;4.13;1.40;;;12.20;99.90;;;;;;10446508;28;20396;-78
2021/12/31 07:55:07;;;;;;;4.53;1.38;;;12.20;99.90;;;;;;10446430;28;20040;-78
2021/12/31 08:00:09;;;;;;;2.03;1.30;;;12.20;99.90;;;;;;10427640;28;20040;-78
2021/12/31 08:05:09;;;;;;;2.13;1.50;;;12.20;99.90;;;;;;10445587;28;20053;-78
2021/12/31 08:10:10;;;;;;;2.85;1.70;;;12.20;99.90;;;;;;10445897;28;20503;-78
2021/12/31 08:15:11;;;;;;;2.15;1.40;;;11.60;99.90;;;;;;10436978;28;20045;-80
2021/12/31 08:20:12;;;;;;;4.18;1.90;;;12.20;99.90;;;;;;10433166;28;20080;-83
2021/12/31 08:25:13;;;;;;;2.95;1.60;;;12.20;99.90;;;;;;10434577;28;20422;-84
2021/12/31 08:30:14;;;;;;;2.88;1.83;;;12.20;99.90;;;;;;10445609;28;20044;-82
2021/12/31 08:35:14;;;;;;;2.35;1.30;;;12.20;99.90;;;;;;10427555;28;20037;-80
2021/12/31 08:40:15;;;;;;;3.25;1.50;;;12.20;99.90;;;;;;10427187;28;20096;-84
2021/12/31 08:45:19;;;;;;;2.17;1.35;;;12.20;99.90;;;;;;10445352;28;20445;-78
2021/12/31 08:50:20;;;;;;;2.20;1.40;;;12.20;99.90;;;;;;10444870;28;20091;-80
2021/12/31 08:55:20;;;;;;;2.75;1.38;;;12.20;99.90;;;;;;10445030;28;20091;-80
2021/12/31 09:00:21;;;;;;;2.42;1.38;;;12.20;99.90;;;;;;10426732;28;20059;-80
2021/12/31 09:05:23;;;;;;;4.97;1.67;;;12.20;99.90;;;;;;10444674;28;20049;-80
2021/12/31 09:10:23;;;;;;;5.45;2.50;;;12.30;99.90;;;;;;10423445;28;20037;-82
2021/12/31 09:15:24;;;;;;;3.17;1.90;;;12.30;99.90;;;;;;10401374;28;20071;-82
2021/12/31 09:20:26;;;;;;;4.75;2.03;;;12.30;99.90;;;;;;10465807;28;20047;-84
2021/12/31 09:25:27;;;;;;;3.05;1.73;;;12.30;99.90;;;;;;10482806;28;20041;-87
2021/12/31 09:30:28;;;;;;;3.40;1.80;;;12.30;99.90;;;;;;10446165;28;20324;-85
2021/12/31 09:35:31;;;;;;;5.80;1.80;;;12.30;99.90;;;;;;10479110;28;20041;-86
2021/12/31 09:40:32;;;;;;;5.07;1.90;;;12.30;99.90;;;;;;10453989;28;20048;-84
2021/12/31 09:45:42;;;;;;;4.95;1.92;;;12.30;99.90;;;;;;10454450;28;20379;-83
2021/12/31 09:50:46;;;;;;;4.40;2.10;;;12.30;99.90;;;;;;10488398;28;20036;-87
2021/12/31 09:55:53;;;;;;;7.75;1.90;;;12.30;99.90;;;;;;10488399;28;20567;-82
2021/12/31 10:00:59;;;;;;;6.65;2.22;;;12.40;99.90;;;;;;10462849;28;20041;-82
2021/12/31 10:06:12;;;;;;;3.45;2.10;;;12.30;99.90;;;;;;10488278;28;20033;-87
2021/12/31 10:11:18;;;;;;;5.93;2.20;;;12.40;99.90;;;;;;10468829;28;20082;-83
2021/12/31 10:16:40;;;;;;;5.30;2.30;;;12.50;99.90;;;;;;10472941;28;20056;-86
2021/12/31 10:21:46;;;;;;;4.28;2.40;;;12.40;99.90;;;;;;10471828;28;20133;-80
2021/12/31 10:26:47;;;;;;;6.45;2.55;;;12.30;99.90;;;;;;10471346;28;20044;-80
2021/12/31 10:31:51;;;;;;;6.22;2.30;;;12.40;99.90;;;;;;10459447;28;20044;-85
2021/12/31 10:36:52;;;;;;;6.10;2.60;;;12.40;99.90;;;;;;10466372;28;20047;-83
2021/12/31 10:42:10;;;;;;;6.22;2.60;;;12.40;99.90;;;;;;10484005;28;20072;-88
2021/12/31 10:47:15;;;;;;;6.20;2.45;;;12.50;99.90;;;;;;10454537;28;20384;-86
2021/12/31 10:52:25;;;;;;;6.43;2.15;;;12.50;99.90;;;;;;10474798;28;20570;-88
2021/12/31 10:57:35;;;;;;;3.90;2.30;;;12.50;99.90;;;;;;10480080;28;20056;-89
2021/12/31 11:02:37;;;;;;;5.53;2.47;;;12.50;99.90;;;;;;10488824;28;20043;-92
2021/12/31 11:07:40;;;;;;;3.45;2.08;;;12.50;99.90;;;;;;10455180;28;20147;-89
2021/12/31 11:12:46;;;;;;;5.43;2.33;;;12.50;99.90;;;;;;10451289;28;20076;-86
2021/12/31 11:18:30;;;;;;;5.88;3.00;;;12.50;99.90;;;;;;10457235;28;20494;-82
2021/12/31 11:24:30;;;;;;;5.30;2.35;;;12.50;99.90;;;;;;10483796;28;20058;-81
2021/12/31 11:30:13;;;;;;;7.30;2.60;;;12.50;99.90;;;;;;10460666;28;20040;-77
2021/12/31 11:36:17;;;;;;;6.57;2.20;;;12.50;99.90;;;;;;10470692;28;20032;-80
2021/12/31 11:42:17;;;;;;;4.97;2.17;;;12.60;99.90;;;;;;10478168;28;20788;-82
2021/12/31 11:48:18;;;;;;;4.72;2.70;;;12.60;99.90;;;;;;10479341;28;20040;-77
2021/12/31 11:54:03;;;;;;;6.78;2.28;;;12.60;99.90;;;;;;10475126;28;20044;-78
2021/12/31 11:59:41;;;;;;;4.88;2.55;;;12.80;99.90;;;;;;10483880;28;20064;-77
2021/12/31 12:05:02;;;;;;;4.95;2.50;;;12.60;99.90;;;;;;10468179;28;20063;-80
2021/12/31 12:11:02;;;;;;;5.55;2.55;;;12.50;99.90;;;;;;10477948;28;20387;-79
2021/12/31 12:16:57;;;;;;;7.88;2.70;;;12.50;99.90;;;;;;10418434;28;1259417;-77
2021/12/31 12:22:50;;;;;;;7.32;2.90;;;12.50;99.90;;;;;;10423946;28;20065;-78
2021/12/31 12:28:48;;;;;;;9.23;3.67;;;12.50;99.90;;;;;;10459240;28;20059;-90
2021/12/31 12:34:48;;;;;;;6.68;3.38;;;12.60;99.90;;;;;;10478903;28;20047;-84
2021/12/31 12:40:37;;;;;;;6.72;2.70;;;12.60;99.90;;;;;;10475314;28;20119;-82
2021/12/31 12:46:37;;;;;;;6.43;3.20;;;12.60;99.90;;;;;;10482154;28;20506;-81
2021/12/31 12:52:38;;;;;;;7.05;3.00;;;12.60;99.90;;;;;;10477290;28;20565;-81
2021/12/31 12:58:41;;;;;;;8.45;3.20;;;12.50;99.90;;;;;;10468626;28;20406;-79
2021/12/31 13:04:41;;;;;;;5.57;3.03;;;12.50;99.90;;;;;;10485370;28;20457;-80
